createdAt,value
2023-02-27T00:01:55.494Z,100775.25
2023-02-27T00:04:58.418Z,100777.19
2023-02-27T00:08:01.264Z,100784.59
2023-02-27T00:11:04.550Z,100790.63
2023-02-27T00:14:07.405Z,100788.16
2023-02-27T00:17:10.208Z,100796.16
2023-02-27T00:20:16.502Z,100803.84
2023-02-27T00:23:19.309Z,100798.09
2023-02-27T00:26:22.301Z,100807.19
2023-02-27T00:29:25.288Z,100812.00
2023-02-27T00:32:29.562Z,100821.03
2023-02-27T00:35:32.411Z,100824.78
2023-02-27T00:38:35.965Z,100822.16
2023-02-27T00:41:40.209Z,100823.00
2023-02-27T00:44:43.031Z,100825.59
2023-02-27T00:47:46.193Z,100829.81
2023-02-27T00:50:50.403Z,100840.28
2023-02-27T00:53:53.470Z,100846.44
2023-02-27T00:56:56.350Z,100845.09
2023-02-27T00:59:59.303Z,100847.16
2023-02-27T01:03:02.236Z,100856.94
2023-02-27T01:06:07.068Z,100858.16
2023-02-27T01:09:10.415Z,100856.66
2023-02-27T01:12:13.795Z,100865.88
2023-02-27T01:15:17.113Z,100862.00
2023-02-27T01:18:19.981Z,100867.66
2023-02-27T01:21:25.399Z,100860.75
2023-02-27T01:24:28.658Z,100862.19
2023-02-27T01:27:31.553Z,100875.25
2023-02-27T01:30:35.088Z,100876.09
2023-02-27T01:33:37.889Z,100886.13
2023-02-27T01:36:40.964Z,100875.91
2023-02-27T01:39:43.878Z,100877.16
2023-02-27T01:42:47.372Z,100885.13
2023-02-27T01:45:50.360Z,100882.09
2023-02-27T01:48:59.843Z,100877.69
2023-02-27T01:52:06.647Z,100891.34
2023-02-27T01:55:13.071Z,100892.31
2023-02-27T01:58:16.690Z,100888.56
2023-02-27T02:01:20.878Z,100892.00
2023-02-27T02:04:36.873Z,100895.88
2023-02-27T02:07:42.113Z,100900.13
2023-02-27T02:10:48.678Z,100899.00
2023-02-27T02:13:57.172Z,100913.56
2023-02-27T02:17:02.698Z,100911.13
2023-02-27T02:20:18.107Z,100917.72
2023-02-27T02:24:15.273Z,100924.31
2023-02-27T02:27:33.746Z,100922.78
2023-02-27T02:30:48.300Z,100934.19
2023-02-27T02:34:18.060Z,100919.50
2023-02-27T02:37:50.331Z,100927.34
2023-02-27T02:41:12.204Z,100921.72
2023-02-27T02:44:24.597Z,100926.41
2023-02-27T02:47:45.326Z,100926.53
2023-02-27T02:51:01.971Z,100910.47
2023-02-27T02:54:14.707Z,100913.94
2023-02-27T02:57:24.070Z,100914.88
2023-02-27T03:00:33.401Z,100910.34
2023-02-27T03:03:44.086Z,100911.19
2023-02-27T03:06:55.234Z,100921.66
2023-02-27T03:10:08.436Z,100918.34
2023-02-27T03:13:19.545Z,100917.25
2023-02-27T03:16:28.364Z,100920.00
2023-02-27T03:19:52.321Z,100927.41
2023-02-27T03:23:00.276Z,100934.28
2023-02-27T03:26:05.263Z,100933.59
2023-02-27T03:29:18.759Z,100938.25
2023-02-27T03:32:52.588Z,100934.66
2023-02-27T03:36:19.105Z,100939.56
2023-02-27T03:39:32.848Z,100936.28
2023-02-27T03:42:46.392Z,100939.81
2023-02-27T03:46:11.692Z,100951.22
2023-02-27T03:49:16.301Z,100950.66
2023-02-27T03:52:21.261Z,100962.97
2023-02-27T03:55:38.197Z,100970.63
2023-02-27T03:58:41.469Z,100977.50
2023-02-27T04:01:44.951Z,100996.03
2023-02-27T04:04:48.240Z,100991.81
2023-02-27T04:08:50.602Z,100989.06
2023-02-27T04:12:22.938Z,101000.06
2023-02-27T04:15:38.812Z,101000.59
2023-02-27T04:18:50.699Z,101005.81
2023-02-27T04:22:22.750Z,101013.81
2023-02-27T04:25:37.835Z,101014.19
2023-02-27T04:29:07.940Z,101025.84
2023-02-27T04:32:31.251Z,101024.22
2023-02-27T04:36:03.733Z,101033.19
2023-02-27T04:39:18.238Z,101033.56
2023-02-27T04:42:38.058Z,101042.09
2023-02-27T04:45:43.983Z,101049.13
2023-02-27T04:49:15.417Z,101057.00
2023-02-27T04:52:28.150Z,101058.63
2023-02-27T04:55:36.364Z,101066.78
2023-02-27T04:58:50.966Z,101065.66
2023-02-27T05:02:02.582Z,101076.53
2023-02-27T05:05:14.553Z,101079.97
2023-02-27T05:08:35.106Z,101085.06
2023-02-27T05:11:47.809Z,101097.44
2023-02-27T05:15:02.510Z,101104.19
2023-02-27T05:18:12.438Z,101110.13
2023-02-27T05:21:34.581Z,101106.50
2023-02-27T05:24:57.757Z,101121.06
2023-02-27T05:28:09.529Z,101132.63
2023-02-27T05:31:29.604Z,101137.72
2023-02-27T05:34:44.135Z,101147.88
2023-02-27T05:37:53.914Z,101150.91
2023-02-27T05:41:22.008Z,101154.47
2023-02-27T05:44:34.681Z,101157.78
2023-02-27T05:47:45.720Z,101161.47
2023-02-27T05:50:51.786Z,101181.34
2023-02-27T05:54:00.439Z,101182.97
2023-02-27T05:57:07.689Z,101181.34
2023-02-27T06:00:28.751Z,101166.63
2023-02-27T06:03:34.804Z,101140.25
2023-02-27T06:06:37.726Z,101127.41
2023-02-27T06:09:41.780Z,101123.34
2023-02-27T06:12:45.253Z,101120.56
2023-02-27T06:15:48.992Z,101127.47
2023-02-27T06:18:51.965Z,101140.03
2023-02-27T06:21:54.757Z,101158.97
2023-02-27T06:24:57.645Z,101175.00
2023-02-27T06:28:01.001Z,101187.94
2023-02-27T06:31:03.888Z,101198.28
2023-02-27T06:34:06.868Z,101194.94
2023-02-27T06:37:09.648Z,101196.31
2023-02-27T06:40:13.789Z,101199.34
2023-02-27T06:43:16.767Z,101199.78
2023-02-27T06:46:19.845Z,101203.09
2023-02-27T06:49:23.184Z,101202.69
2023-02-27T06:52:26.377Z,101202.38
2023-02-27T06:55:29.286Z,101214.50
2023-02-27T06:58:32.190Z,101216.16
2023-02-27T07:01:38.921Z,101222.91
2023-02-27T07:04:42.372Z,101223.31
2023-02-27T07:07:45.444Z,101218.75
2023-02-27T07:10:50.366Z,101218.91
2023-02-27T07:13:53.507Z,101221.81
2023-02-27T07:16:56.743Z,101222.63
2023-02-27T07:19:59.686Z,101231.34
2023-02-27T07:23:03.244Z,101236.38
2023-02-27T07:26:08.282Z,101250.84
2023-02-27T07:29:11.246Z,101246.38
2023-02-27T07:32:14.251Z,101257.09
2023-02-27T07:35:17.312Z,101260.16
2023-02-27T07:38:22.479Z,101265.22
2023-02-27T07:41:30.836Z,101262.56
2023-02-27T07:44:37.334Z,101271.34
2023-02-27T07:47:42.994Z,101261.16
2023-02-27T07:50:46.006Z,101270.25
2023-02-27T07:53:49.309Z,101272.09
2023-02-27T07:56:52.498Z,101271.06
2023-02-27T07:59:55.778Z,101280.28
2023-02-27T08:02:58.870Z,101276.09
2023-02-27T08:06:02.463Z,101282.78
2023-02-27T08:09:06.400Z,101282.84
2023-02-27T08:12:10.912Z,101287.03
2023-02-27T08:15:14.407Z,101287.72
2023-02-27T08:18:17.292Z,101293.84
2023-02-27T08:21:20.058Z,101292.50
2023-02-27T08:24:23.229Z,101301.53
2023-02-27T08:27:26.175Z,101292.31
2023-02-27T08:30:29.555Z,101289.47
2023-02-27T08:33:33.141Z,101298.53
2023-02-27T08:36:38.874Z,101313.53
2023-02-27T08:39:43.420Z,101298.00
2023-02-27T08:42:46.323Z,101306.63
2023-02-27T08:45:49.977Z,101307.78
2023-02-27T08:48:52.895Z,101310.66
2023-02-27T08:51:55.986Z,101309.41
2023-02-27T08:55:00.361Z,101307.00
2023-02-27T08:58:03.467Z,101307.13
2023-02-27T09:01:06.600Z,101312.09
2023-02-27T09:04:12.005Z,101314.66
2023-02-27T09:07:16.780Z,101314.50
2023-02-27T09:10:19.850Z,101311.53
2023-02-27T09:13:23.214Z,101324.16
2023-02-27T09:16:27.523Z,101312.38
2023-02-27T09:19:30.671Z,101313.53
2023-02-27T09:22:33.480Z,101311.66
2023-02-27T09:25:37.412Z,101320.28
2023-02-27T09:28:40.362Z,101326.94
2023-02-27T09:31:49.007Z,101329.28
2023-02-27T09:34:54.480Z,101336.56
2023-02-27T09:37:58.465Z,101343.94
2023-02-27T09:41:02.362Z,101345.88
2023-02-27T09:44:36.423Z,101347.03
2023-02-27T09:47:51.595Z,101339.53
2023-02-27T09:50:54.940Z,101335.38
2023-02-27T09:57:46.874Z,101334.63
2023-02-27T10:01:09.687Z,101339.56
2023-02-27T10:04:37.938Z,101329.25
2023-02-27T10:08:22.625Z,101334.63
2023-02-27T10:11:52.124Z,101334.97
2023-02-27T10:14:55.079Z,101326.38
2023-02-27T10:18:45.741Z,101317.47
2023-02-27T10:21:53.500Z,101330.22
2023-02-27T10:25:15.617Z,101332.53
2023-02-27T10:28:28.201Z,101334.69
2023-02-27T10:31:41.845Z,101339.28
2023-02-27T10:35:07.666Z,101345.47
2023-02-27T10:38:27.316Z,101338.34
2023-02-27T10:41:31.435Z,101340.13
2023-02-27T10:44:35.455Z,101331.59
2023-02-27T10:47:39.879Z,101338.97
2023-02-27T10:50:52.339Z,101330.88
2023-02-27T10:54:16.635Z,101335.13
2023-02-27T10:57:41.192Z,101338.00
2023-02-27T11:00:56.279Z,101336.38
2023-02-27T11:04:00.408Z,101329.03
2023-02-27T11:07:10.518Z,101332.47
2023-02-27T11:10:13.193Z,101336.88
2023-02-27T11:13:26.151Z,101347.22
2023-02-27T11:16:46.321Z,101343.94
2023-02-27T11:19:50.112Z,101342.00
2023-02-27T11:23:15.587Z,101348.03
2023-02-27T11:26:26.285Z,101344.47
2023-02-27T11:29:29.689Z,101352.03
2023-02-27T11:32:46.032Z,101360.50
2023-02-27T11:35:56.897Z,101348.75
2023-02-27T11:39:01.333Z,101351.06
2023-02-27T11:42:14.983Z,101363.06
2023-02-27T11:46:20.351Z,101354.44
2023-02-27T11:49:09.710Z,101351.38
2023-02-27T11:52:20.067Z,101348.72
2023-02-27T11:55:33.040Z,101347.00
2023-02-27T11:58:48.840Z,101343.16
2023-02-27T12:02:01.694Z,101351.22
2023-02-27T12:05:07.495Z,101350.50
2023-02-27T12:08:23.215Z,101339.41
2023-02-27T12:11:35.468Z,101338.59
2023-02-27T12:15:06.237Z,101343.31
2023-02-27T12:18:30.434Z,101348.56
2023-02-27T12:21:46.355Z,101345.78
2023-02-27T12:25:04.709Z,101347.81
2023-02-27T12:28:24.090Z,101354.72
2023-02-27T12:31:35.031Z,101352.34
2023-02-27T12:34:43.475Z,101366.88
2023-02-27T12:37:46.574Z,101364.44
2023-02-27T12:41:14.583Z,101374.69
2023-02-27T12:44:48.405Z,101372.00
2023-02-27T12:48:03.391Z,101366.94
2023-02-27T12:51:35.829Z,101367.84
2023-02-27T12:54:48.198Z,101377.78
2023-02-27T12:58:12.938Z,101380.34
2023-02-27T13:01:32.158Z,101373.13
2023-02-27T13:04:48.627Z,101372.44
2023-02-27T13:08:14.600Z,101375.63
2023-02-27T13:11:29.869Z,101390.41
2023-02-27T13:14:51.194Z,101375.78
2023-02-27T13:21:35.109Z,101369.50
2023-02-27T13:24:43.789Z,101370.84
2023-02-27T13:28:01.621Z,101364.13
2023-02-27T13:31:23.003Z,101366.09
2023-02-27T13:34:40.724Z,101371.13
2023-02-27T13:37:57.462Z,101366.25
2023-02-27T13:41:25.199Z,101370.09
2023-02-27T13:44:30.148Z,101362.88
2023-02-27T13:47:41.250Z,101359.31
2023-02-27T13:50:43.992Z,101374.78
2023-02-27T13:53:46.908Z,101382.09
2023-02-27T13:56:57.642Z,101386.91
2023-02-27T14:00:31.751Z,101396.47
2023-02-27T14:03:34.749Z,101397.97
2023-02-27T14:06:45.904Z,101392.69
2023-02-27T14:09:53.045Z,101396.16
2023-02-27T14:12:57.934Z,101394.41
2023-02-27T14:16:01.998Z,101402.09
2023-02-27T14:19:19.740Z,101399.19
2023-02-27T14:22:34.243Z,101418.50
2023-02-27T14:25:43.253Z,101410.88
2023-02-27T14:28:55.894Z,101410.69
2023-02-27T14:32:08.632Z,101417.50
2023-02-27T14:35:15.716Z,101404.31
2023-02-27T14:38:20.834Z,101384.00
2023-02-27T14:41:50.412Z,101379.19
2023-02-27T14:44:53.691Z,101400.44
2023-02-27T14:47:58.110Z,101400.47
2023-02-27T14:51:05.000Z,101405.34
2023-02-27T14:54:16.972Z,101406.16
2023-02-27T14:57:24.215Z,101407.19
2023-02-27T15:00:44.669Z,101415.41
2023-02-27T15:03:52.092Z,101404.41
2023-02-27T15:06:57.494Z,101394.81
2023-02-27T15:10:04.740Z,101395.94
2023-02-27T15:13:19.474Z,101401.00
2023-02-27T15:16:34.407Z,101406.75
2023-02-27T15:19:45.322Z,101416.75
2023-02-27T15:22:48.553Z,101420.78
2023-02-27T15:25:56.662Z,101421.59
2023-02-27T15:29:00.514Z,101431.31
2023-02-27T15:32:04.849Z,101434.09
2023-02-27T15:35:24.745Z,101431.09
2023-02-27T15:38:34.171Z,101440.75
2023-02-27T15:41:38.117Z,101440.09
2023-02-27T15:44:44.309Z,101442.91
2023-02-27T15:47:48.092Z,101448.00
2023-02-27T15:51:10.230Z,101445.06
2023-02-27T15:54:13.787Z,101451.44
2023-02-27T15:57:16.927Z,101452.25
2023-02-27T16:00:21.445Z,101457.41
2023-02-27T16:03:24.658Z,101455.03
2023-02-27T16:06:34.345Z,101462.16
2023-02-27T16:09:38.709Z,101456.06
2023-02-27T16:12:43.049Z,101449.19
2023-02-27T16:15:45.824Z,101456.34
2023-02-27T16:18:51.505Z,101452.53
2023-02-27T16:22:17.389Z,101451.03
2023-02-27T16:25:20.590Z,101454.19
2023-02-27T16:28:23.557Z,101455.78
2023-02-27T16:31:31.726Z,101460.22
2023-02-27T16:34:45.093Z,101462.72
2023-02-27T16:37:50.634Z,101467.69
2023-02-27T16:40:53.586Z,101462.91
2023-02-27T16:43:56.615Z,101467.75
2023-02-27T16:46:59.422Z,101468.16
2023-02-27T16:50:02.720Z,101486.41
2023-02-27T16:53:05.840Z,101481.88
2023-02-27T16:56:11.623Z,101479.81
2023-02-27T16:59:36.361Z,101496.66
2023-02-27T17:02:39.381Z,101501.47
2023-02-27T17:05:42.144Z,101508.25
2023-02-27T17:08:45.280Z,101517.63
2023-02-27T17:11:49.302Z,101531.44
2023-02-27T17:14:52.654Z,101536.44
2023-02-27T17:17:55.559Z,101536.97
2023-02-27T17:21:03.026Z,101546.63
2023-02-27T17:24:06.429Z,101547.88
2023-02-27T17:27:09.722Z,101551.44
2023-02-27T17:30:14.106Z,101537.66
2023-02-27T17:33:17.601Z,101548.44
2023-02-27T17:36:21.864Z,101561.50
2023-02-27T17:39:25.086Z,101549.09
2023-02-27T17:42:28.082Z,101546.91
2023-02-27T17:45:32.151Z,101560.16
2023-02-27T17:48:35.770Z,101555.88
2023-02-27T17:51:38.505Z,101552.84
2023-02-27T17:54:41.416Z,101554.34
2023-02-27T17:57:44.499Z,101565.78
2023-02-27T18:00:47.443Z,101568.13
2023-02-27T18:03:54.458Z,101565.41
2023-02-27T18:06:57.326Z,101576.31
2023-02-27T18:10:00.614Z,101587.72
2023-02-27T18:13:05.400Z,101608.00
2023-02-27T18:16:10.837Z,101591.47
2023-02-27T18:19:14.613Z,101586.63
2023-02-27T18:22:17.831Z,101601.28
2023-02-27T18:25:20.956Z,101603.19
2023-02-27T18:28:24.457Z,101593.97
2023-02-27T18:31:31.279Z,101594.66
2023-02-27T18:34:34.718Z,101601.56
2023-02-27T18:37:37.779Z,101603.75
2023-02-27T18:40:40.675Z,101603.75
2023-02-27T18:43:44.460Z,101604.72
2023-02-27T18:46:47.542Z,101609.16
2023-02-27T18:49:51.331Z,101614.66
2023-02-27T18:53:00.269Z,101607.91
2023-02-27T18:56:05.786Z,101613.28
2023-02-27T18:59:09.158Z,101619.88
2023-02-27T19:02:15.704Z,101628.91
2023-02-27T19:05:18.958Z,101630.25
2023-02-27T19:08:25.141Z,101619.25
2023-02-27T19:11:34.079Z,101624.22
2023-02-27T19:14:38.720Z,101635.34
2023-02-27T19:17:42.251Z,101636.00
2023-02-27T19:20:45.889Z,101634.78
2023-02-27T19:23:48.949Z,101637.13
2023-02-27T19:26:53.520Z,101644.88
2023-02-27T19:29:56.902Z,101655.66
2023-02-27T19:33:00.001Z,101656.31
2023-02-27T19:36:11.469Z,101653.69
2023-02-27T19:39:14.730Z,101657.59
2023-02-27T19:42:18.427Z,101671.09
2023-02-27T19:45:21.477Z,101669.53
2023-02-27T19:48:24.869Z,101678.13
2023-02-27T19:51:28.552Z,101677.56
2023-02-27T19:54:31.696Z,101673.84
2023-02-27T19:57:37.139Z,101687.06
2023-02-27T20:00:40.902Z,101689.41
2023-02-27T20:03:44.474Z,101684.72
2023-02-27T20:06:50.066Z,101696.91
2023-02-27T20:09:52.978Z,101697.31
2023-02-27T20:12:56.086Z,101692.06
2023-02-27T20:16:05.295Z,101696.53
2023-02-27T20:19:11.741Z,101700.25
2023-02-27T20:22:16.026Z,101705.97
2023-02-27T20:25:19.435Z,101699.63
2023-02-27T20:28:23.453Z,101700.13
2023-02-27T20:31:29.173Z,101696.31
2023-02-27T20:34:32.744Z,101703.56
2023-02-27T20:37:35.809Z,101711.56
2023-02-27T20:40:38.789Z,101718.69
2023-02-27T20:43:45.232Z,101710.44
2023-02-27T20:46:49.567Z,101722.44
2023-02-27T20:49:52.682Z,101731.41
2023-02-27T20:52:55.725Z,101725.44
2023-02-27T20:55:58.745Z,101724.13
2023-02-27T20:59:04.153Z,101724.13
2023-02-27T21:02:08.692Z,101720.91
2023-02-27T21:05:11.632Z,101726.53
2023-02-27T21:08:15.075Z,101730.09
2023-02-27T21:11:21.686Z,101736.72
2023-02-27T21:14:24.521Z,101732.38
2023-02-27T21:17:27.370Z,101742.41
2023-02-27T21:20:30.472Z,101744.59
2023-02-27T21:23:34.595Z,101740.59
2023-02-27T21:26:39.025Z,101742.28
2023-02-27T21:29:41.900Z,101742.09
2023-02-27T21:32:45.731Z,101744.72
2023-02-27T21:35:49.033Z,101749.25
2023-02-27T21:38:56.689Z,101749.75
2023-02-27T21:41:59.805Z,101750.81
2023-02-27T21:45:02.739Z,101742.53
2023-02-27T21:48:06.042Z,101745.16
2023-02-27T21:51:08.901Z,101744.78
2023-02-27T21:54:13.307Z,101747.97
2023-02-27T21:57:16.098Z,101751.09
2023-02-27T22:00:19.750Z,101754.03
2023-02-27T22:03:23.118Z,101759.13
2023-02-27T22:06:28.596Z,101750.72
2023-02-27T22:09:31.516Z,101762.59
2023-02-27T22:12:34.339Z,101766.94
2023-02-27T22:15:37.287Z,101779.13
2023-02-27T22:18:41.193Z,101783.03
2023-02-27T22:21:43.984Z,101785.44
2023-02-27T22:24:47.697Z,101787.91
2023-02-27T22:27:50.566Z,101790.63
2023-02-27T22:30:57.135Z,101794.91
2023-02-27T22:34:06.698Z,101808.69
2023-02-27T22:37:09.492Z,101805.97
2023-02-27T22:40:12.927Z,101812.00
2023-02-27T22:43:17.115Z,101811.53
2023-02-27T22:46:38.157Z,101817.84
2023-02-27T22:49:41.052Z,101814.97
2023-02-27T22:52:43.789Z,101830.06
2023-02-27T22:55:53.398Z,101831.59
2023-02-27T22:58:56.372Z,101837.06
2023-02-27T23:02:05.021Z,101839.69
2023-02-27T23:05:08.193Z,101833.59
2023-02-27T23:08:11.055Z,101846.06
2023-02-27T23:11:15.294Z,101845.22
2023-02-27T23:14:18.440Z,101848.41
2023-02-27T23:17:21.183Z,101845.81
2023-02-27T23:20:23.919Z,101850.75
2023-02-27T23:23:28.509Z,101856.69
2023-02-27T23:26:31.344Z,101858.28
2023-02-27T23:29:34.445Z,101853.31
2023-02-27T23:32:43.685Z,101860.66
2023-02-27T23:35:46.652Z,101853.16
2023-02-27T23:38:49.586Z,101854.47
2023-02-27T23:41:52.401Z,101851.03
2023-02-27T23:44:55.423Z,101854.09
2023-02-27T23:48:00.474Z,101862.66
2023-02-27T23:51:05.781Z,101849.59
2023-02-27T23:54:08.761Z,101853.44
2023-02-27T23:57:11.691Z,101853.44
